sensor_id;sensor_type;location;lat;lon;timestamp;P1;durP1;ratioP1;P2;durP2;ratioP2
81039;SDS011;70525;53.224;8.782;2024-01-06T00:09:30;7.87;;;3.67;;
81039;SDS011;70525;53.224;8.782;2024-01-06T00:39:32;8.70;;;4.03;;
81039;SDS011;70525;53.224;8.782;2024-01-06T01:09:34;5.87;;;3.10;;
81039;SDS011;70525;53.224;8.782;2024-01-06T01:39:36;5.13;;;2.90;;
81039;SDS011;70525;53.224;8.782;2024-01-06T02:09:37;9.67;;;3.57;;
81039;SDS011;70525;53.224;8.782;2024-01-06T02:39:39;4.53;;;2.20;;
81039;SDS011;70525;53.224;8.782;2024-01-06T03:39:42;7.10;;;3.33;;
81039;SDS011;70525;53.224;8.782;2024-01-06T04:39:45;10.77;;;4.60;;
81039;SDS011;70525;53.224;8.782;2024-01-06T05:09:47;6.07;;;3.80;;
81039;SDS011;70525;53.224;8.782;2024-01-06T05:39:48;11.00;;;5.00;;
81039;SDS011;70525;53.224;8.782;2024-01-06T06:09:50;5.90;;;3.93;;
81039;SDS011;70525;53.224;8.782;2024-01-06T06:39:54;8.83;;;4.83;;
81039;SDS011;70525;53.224;8.782;2024-01-06T07:09:55;9.93;;;5.50;;
81039;SDS011;70525;53.224;8.782;2024-01-06T07:39:57;14.77;;;6.20;;
81039;SDS011;70525;53.224;8.782;2024-01-06T08:09:59;17.23;;;6.27;;
81039;SDS011;70525;53.224;8.782;2024-01-06T08:40:00;15.77;;;6.77;;
81039;SDS011;70525;53.224;8.782;2024-01-06T09:10:02;11.87;;;6.17;;
81039;SDS011;70525;53.224;8.782;2024-01-06T09:40:04;10.87;;;5.67;;
81039;SDS011;70525;53.224;8.782;2024-01-06T10:10:07;14.27;;;6.37;;
81039;SDS011;70525;53.224;8.782;2024-01-06T10:40:09;10.57;;;5.80;;
81039;SDS011;70525;53.224;8.782;2024-01-06T11:10:15;12.67;;;5.83;;
81039;SDS011;70525;53.224;8.782;2024-01-06T12:10:22;11.57;;;6.40;;
81039;SDS011;70525;53.224;8.782;2024-01-06T12:40:24;8.07;;;4.57;;
81039;SDS011;70525;53.224;8.782;2024-01-06T13:10:27;14.37;;;6.63;;
81039;SDS011;70525;53.224;8.782;2024-01-06T13:40:29;15.23;;;6.53;;
81039;SDS011;70525;53.224;8.782;2024-01-06T14:10:31;10.07;;;4.83;;
81039;SDS011;70525;53.224;8.782;2024-01-06T14:40:32;9.80;;;4.93;;
81039;SDS011;70525;53.224;8.782;2024-01-06T15:10:34;10.00;;;4.93;;
81039;SDS011;70525;53.224;8.782;2024-01-06T15:40:35;8.43;;;3.97;;
81039;SDS011;70525;53.224;8.782;2024-01-06T16:10:37;7.03;;;3.30;;
81039;SDS011;70525;53.224;8.782;2024-01-06T16:40:39;7.53;;;3.77;;
81039;SDS011;70525;53.224;8.782;2024-01-06T17:10:40;7.77;;;3.53;;
81039;SDS011;70525;53.224;8.782;2024-01-06T17:40:42;10.17;;;4.30;;
81039;SDS011;70525;53.224;8.782;2024-01-06T18:10:44;8.20;;;4.20;;
81039;SDS011;70525;53.224;8.782;2024-01-06T18:40:46;3.80;;;2.53;;
81039;SDS011;70525;53.224;8.782;2024-01-06T19:10:47;9.07;;;3.70;;
81039;SDS011;70525;53.224;8.782;2024-01-06T19:40:49;5.07;;;3.37;;
81039;SDS011;70525;53.224;8.782;2024-01-06T20:40:53;6.93;;;3.57;;
81039;SDS011;70525;53.224;8.782;2024-01-06T21:10:54;14.53;;;4.17;;
81039;SDS011;70525;53.224;8.782;2024-01-06T21:40:56;9.47;;;4.43;;
81039;SDS011;70525;53.224;8.782;2024-01-06T22:10:57;6.07;;;3.83;;
81039;SDS011;70525;53.224;8.782;2024-01-06T22:41:00;8.97;;;3.60;;
81039;SDS011;70525;53.224;8.782;2024-01-06T23:11:02;4.80;;;2.70;;
81039;SDS011;70525;53.224;8.782;2024-01-06T23:41:04;5.90;;;2.40;;
